Iroquois Falls, Canada
Current Conditions -  °F | °C
As of 2:00 AM on Friday 31 Oct 2014 (Local Time) from CYTS Reporting Station
Light Snow Light Snow  
Wind Chill: 17°   Ceiling: 4600
Heat Index: 27°   Visibility: 6mi
Dew Point: 25°   Wind: 10mph
Humidity: 93%   Direction: 10°N
Pressure: 30.07"   Gusts: NA
Location:  48.77°N, 80.67°W
Report Text: CYTS 310600Z 01009KT 6SM -SN FEW009 FEW028 OVC046 M03/M04 A3007 RMK SF1SC1SC6 SLP199
Loading
Personal Weather Stations






























Interactive Weather Map
Tropical Storm Tracking
New forecast layout! Learn more

10-Day Weather Forecast

Advertisements
Track Severe Weather on mobile